Terminal Aerodrome Forecast
Issued by NWS

Home | Current Version | Previous Version | Graphics & Text | Print | Product List | Glossary On
Versions: 1 2 3 4 5 6 7 8 9 10 11 12 13 14 15 16
000
FTUS43 KICT 290700 AAA
TAFSLN
TAF AMD
KSLN 290748Z 2908/3006 08008KT P6SM SCT250
     FM290900 VRB05KT P6SM VCSH SCT070 BKN120
     FM291300 12008KT P6SM SCT120
     FM300200 11012KT P6SM VCTS BKN050CB=

USA.gov is the U.S. government's official web portal to all federal, state and local government web resources and services.